createdAt,value
2022-08-19T00:00:59.429Z,0
2022-08-19T00:03:58.453Z,0
2022-08-19T00:06:58.881Z,0
2022-08-19T00:09:58.816Z,0.3333333333333333
2022-08-19T00:12:58.553Z,0
2022-08-19T00:15:59.219Z,0
2022-08-19T00:18:58.755Z,0
2022-08-19T00:21:58.939Z,0
2022-08-19T00:24:59.017Z,0
2022-08-19T00:27:59.079Z,0
2022-08-19T00:30:58.838Z,0
2022-08-19T00:33:59.527Z,0
2022-08-19T00:36:58.744Z,0
2022-08-19T00:39:59.004Z,0
2022-08-19T00:42:58.742Z,0
2022-08-19T00:45:58.832Z,0.3333333333333333
2022-08-19T00:48:58.651Z,0
2022-08-19T00:51:58.513Z,0
2022-08-19T00:54:58.600Z,0
2022-08-19T00:57:58.976Z,0
2022-08-19T01:00:59.417Z,0
2022-08-19T01:03:59.378Z,0
2022-08-19T01:06:58.628Z,0
2022-08-19T01:09:58.457Z,0
2022-08-19T01:12:59.363Z,0
2022-08-19T01:15:59.326Z,0.3333333333333333
2022-08-19T01:18:58.484Z,0
2022-08-19T01:21:58.527Z,0
2022-08-19T01:24:59.317Z,0
2022-08-19T01:28:09.277Z,0
2022-08-19T01:30:58.183Z,0
2022-08-19T01:33:59.089Z,0
2022-08-19T01:36:59.043Z,0
2022-08-19T01:39:59.342Z,0.3333333333333333
2022-08-19T01:42:58.413Z,0
2022-08-19T01:45:59.579Z,0
2022-08-19T01:48:58.844Z,0
2022-08-19T01:51:59.210Z,0
2022-08-19T01:54:58.810Z,0
2022-08-19T01:57:58.509Z,0
2022-08-19T02:00:59.917Z,0
2022-08-19T02:03:59.388Z,0
2022-08-19T02:06:58.600Z,0
2022-08-19T02:09:58.589Z,0
2022-08-19T02:12:58.475Z,0
2022-08-19T02:15:58.947Z,0
2022-08-19T02:18:58.512Z,0
2022-08-19T02:21:58.463Z,0
2022-08-19T02:24:58.508Z,0
2022-08-19T02:27:59.298Z,0
2022-08-19T02:30:59.110Z,0
2022-08-19T02:33:58.762Z,0
2022-08-19T02:37:03.183Z,0
2022-08-19T02:39:59.104Z,0
2022-08-19T02:42:59.104Z,0
2022-08-19T02:45:59.164Z,0
2022-08-19T02:48:58.147Z,0
2022-08-19T02:51:59.088Z,0
2022-08-19T02:54:58.896Z,0
2022-08-19T02:57:58.654Z,0
2022-08-19T03:00:58.927Z,0
2022-08-19T03:03:59.446Z,0
2022-08-19T03:07:09.484Z,0
2022-08-19T03:09:59.556Z,0
2022-08-19T03:12:58.657Z,0
2022-08-19T03:15:58.739Z,0
2022-08-19T03:18:58.664Z,0
2022-08-19T03:21:59.330Z,0
2022-08-19T03:24:58.393Z,0
2022-08-19T03:27:59.387Z,0
2022-08-19T03:30:58.797Z,0
2022-08-19T03:33:59.208Z,0
2022-08-19T03:36:58.442Z,0
2022-08-19T03:39:59.392Z,0
2022-08-19T03:42:58.294Z,0
2022-08-19T03:45:58.335Z,0
2022-08-19T03:48:59.086Z,0
2022-08-19T03:51:58.445Z,0
2022-08-19T03:54:58.154Z,0
2022-08-19T03:57:59.349Z,0
2022-08-19T04:00:59.664Z,0
2022-08-19T04:03:58.942Z,0
2022-08-19T04:06:58.799Z,1
2022-08-19T04:09:59.264Z,0.6666666666666666
2022-08-19T04:12:59.788Z,2.6666666666666665
2022-08-19T04:15:59.074Z,4
2022-08-19T04:18:59.140Z,5.333333333333333
2022-08-19T04:21:59.170Z,6.333333333333333
2022-08-19T04:24:58.713Z,10.333333333333334
2022-08-19T04:27:58.862Z,13
2022-08-19T04:30:58.532Z,20.333333333333332
2022-08-19T04:33:58.449Z,32.666666666666664
2022-08-19T04:36:59.414Z,43
2022-08-19T04:40:02.431Z,43
2022-08-19T04:42:59.478Z,42
2022-08-19T04:46:00.820Z,46
2022-08-19T04:48:58.709Z,54.666666666666664
2022-08-19T04:51:58.884Z,68
2022-08-19T04:54:59.604Z,77
2022-08-19T04:57:58.965Z,78.66666666666667
2022-08-19T05:00:59.323Z,83.33333333333333
2022-08-19T05:03:59.677Z,73
2022-08-19T05:06:59.534Z,74.66666666666667
2022-08-19T05:09:59.353Z,80.66666666666667
2022-08-19T05:12:58.919Z,83.33333333333333
2022-08-19T05:15:59.065Z,65.66666666666667
2022-08-19T05:18:58.958Z,59
2022-08-19T05:21:59.745Z,60
2022-08-19T05:25:12.086Z,78
2022-08-19T05:27:59.665Z,87.33333333333333
2022-08-19T05:30:59.834Z,80.33333333333333
2022-08-19T05:33:58.811Z,65
2022-08-19T05:36:58.828Z,65.66666666666667
2022-08-19T05:39:59.245Z,55.666666666666664
2022-08-19T05:42:59.627Z,50
2022-08-19T05:45:59.184Z,50
2022-08-19T05:48:59.452Z,47.666666666666664
2022-08-19T05:51:59.485Z,52.333333333333336
2022-08-19T05:54:59.349Z,65
2022-08-19T05:57:59.439Z,79
2022-08-19T06:00:59.529Z,101
2022-08-19T06:03:59.409Z,118.66666666666667
2022-08-19T06:06:59.260Z,127.33333333333333
2022-08-19T06:10:00.956Z,115
2022-08-19T06:12:59.408Z,104.66666666666667
2022-08-19T06:15:59.893Z,102.66666666666667
2022-08-19T06:18:59.088Z,109
2022-08-19T06:21:59.107Z,113
2022-08-19T06:24:58.589Z,108
2022-08-19T06:28:14.522Z,89.66666666666667
2022-08-19T06:30:59.319Z,82.66666666666667
2022-08-19T06:33:59.243Z,76.33333333333333
2022-08-19T06:36:58.557Z,67
2022-08-19T06:39:58.944Z,56.666666666666664
2022-08-19T06:42:59.434Z,54.333333333333336
2022-08-19T06:45:58.928Z,58.333333333333336
2022-08-19T06:48:59.014Z,78.66666666666667
2022-08-19T06:51:58.894Z,100.33333333333333
2022-08-19T06:54:59.765Z,118.66666666666667
2022-08-19T06:57:58.573Z,171
2022-08-19T07:00:59.601Z,185
2022-08-19T07:03:58.555Z,161.33333333333334
2022-08-19T07:06:58.739Z,182.66666666666666
2022-08-19T07:10:01.851Z,231.66666666666666
2022-08-19T07:12:58.691Z,261
2022-08-19T07:15:58.994Z,276.3333333333333
2022-08-19T07:18:59.735Z,295.3333333333333
2022-08-19T07:21:59.321Z,320.6666666666667
2022-08-19T07:24:59.137Z,263
2022-08-19T07:27:58.955Z,219.33333333333334
2022-08-19T07:30:59.006Z,223.33333333333334
2022-08-19T07:33:59.371Z,200
2022-08-19T07:36:59.360Z,210
2022-08-19T07:39:59.590Z,234
2022-08-19T07:42:58.702Z,243.33333333333334
2022-08-19T07:45:59.458Z,243.33333333333334
2022-08-19T07:48:59.174Z,241.66666666666666
2022-08-19T07:51:59.245Z,238
2022-08-19T07:54:58.798Z,214
2022-08-19T07:57:58.778Z,187.33333333333334
2022-08-19T08:00:59.226Z,219.66666666666666
2022-08-19T08:03:58.776Z,288
2022-08-19T08:06:58.659Z,369.6666666666667
2022-08-19T08:09:59.546Z,431
2022-08-19T08:13:10.078Z,457.3333333333333
2022-08-19T08:15:58.600Z,471
2022-08-19T08:18:59.446Z,501
2022-08-19T08:21:58.374Z,537
2022-08-19T08:24:58.463Z,556.6666666666666
2022-08-19T08:27:58.583Z,656.3333333333334
2022-08-19T08:30:58.801Z,577.6666666666666
2022-08-19T08:33:58.481Z,521.3333333333334
2022-08-19T08:36:58.596Z,476.6666666666667
2022-08-19T08:39:59.376Z,454
2022-08-19T08:42:58.460Z,486.3333333333333
2022-08-19T08:45:59.078Z,491
2022-08-19T08:48:59.116Z,441.3333333333333
2022-08-19T08:51:59.536Z,415.6666666666667
2022-08-19T08:54:58.497Z,407
2022-08-19T08:57:58.979Z,357.3333333333333
2022-08-19T09:00:59.020Z,340
2022-08-19T09:04:02.658Z,349.6666666666667
2022-08-19T09:06:59.708Z,345.6666666666667
2022-08-19T09:09:59.171Z,281.3333333333333
2022-08-19T09:12:58.700Z,238.33333333333334
2022-08-19T09:15:59.278Z,280.6666666666667
2022-08-19T09:18:58.709Z,309.3333333333333
2022-08-19T09:21:59.095Z,281.6666666666667
2022-08-19T09:24:59.758Z,222.66666666666666
2022-08-19T09:28:02.271Z,238
2022-08-19T09:30:59.019Z,244.33333333333334
2022-08-19T09:33:59.478Z,244
2022-08-19T09:36:58.707Z,227
2022-08-19T09:39:59.354Z,204
2022-08-19T09:42:59.245Z,197
2022-08-19T09:45:59.163Z,197.33333333333334
2022-08-19T09:48:58.845Z,205
2022-08-19T09:51:59.038Z,185.66666666666666
2022-08-19T09:54:59.547Z,196.66666666666666
2022-08-19T09:57:59.188Z,190
2022-08-19T10:00:59.750Z,180.66666666666666
2022-08-19T10:03:59.120Z,158.33333333333334
2022-08-19T10:06:59.045Z,138.33333333333334
2022-08-19T10:09:58.998Z,141.33333333333334
2022-08-19T10:12:58.939Z,158.33333333333334
2022-08-19T10:15:59.004Z,169.33333333333334
2022-08-19T10:18:59.360Z,156.66666666666666
2022-08-19T10:22:00.567Z,146.33333333333334
2022-08-19T10:24:58.801Z,172.66666666666666
2022-08-19T10:27:59.838Z,151.33333333333334
2022-08-19T10:30:59.814Z,170.66666666666666
2022-08-19T10:33:59.751Z,136.66666666666666
2022-08-19T10:37:00.465Z,140.33333333333334
2022-08-19T10:39:59.739Z,140
2022-08-19T10:42:59.455Z,164
2022-08-19T10:45:59.383Z,146
2022-08-19T10:48:59.428Z,125.66666666666667
2022-08-19T10:51:59.017Z,101.33333333333333
2022-08-19T10:54:59.239Z,107
2022-08-19T10:58:04.115Z,89
2022-08-19T11:00:59.761Z,73
2022-08-19T11:04:16.893Z,100.33333333333333
2022-08-19T11:06:59.193Z,90.33333333333333
2022-08-19T11:09:59.386Z,76.66666666666667
2022-08-19T11:12:58.489Z,120
2022-08-19T11:16:01.706Z,93.66666666666667
2022-08-19T11:18:59.345Z,95.66666666666667
2022-08-19T11:22:00.111Z,115
2022-08-19T11:24:59.359Z,148.33333333333334
2022-08-19T11:27:58.972Z,104
2022-08-19T11:30:58.999Z,88
2022-08-19T11:33:58.902Z,98.66666666666667
2022-08-19T11:36:59.348Z,162.33333333333334
2022-08-19T11:39:59.877Z,167.33333333333334
2022-08-19T11:42:59.424Z,169.33333333333334
2022-08-19T11:45:59.604Z,245
2022-08-19T11:48:58.660Z,247
2022-08-19T11:51:58.549Z,172
2022-08-19T11:54:59.095Z,115
2022-08-19T11:57:59.511Z,132.66666666666666
2022-08-19T12:00:59.148Z,233.33333333333334
2022-08-19T12:03:59.324Z,216
2022-08-19T12:06:59.075Z,324.6666666666667
2022-08-19T12:09:59.405Z,315.6666666666667
2022-08-19T12:12:59.310Z,276
2022-08-19T12:15:59.323Z,274
2022-08-19T12:18:58.828Z,260.3333333333333
2022-08-19T12:21:59.197Z,284.3333333333333
2022-08-19T12:24:59.011Z,277.3333333333333
2022-08-19T12:27:58.512Z,252
2022-08-19T12:30:59.632Z,233.66666666666666
2022-08-19T12:33:58.962Z,216
2022-08-19T12:36:59.063Z,199.66666666666666
2022-08-19T12:39:59.677Z,239
2022-08-19T12:42:59.238Z,227.33333333333334
2022-08-19T12:45:59.585Z,200
2022-08-19T12:48:58.774Z,175.66666666666666
2022-08-19T12:51:59.611Z,222
2022-08-19T12:54:59.093Z,194
2022-08-19T12:57:59.324Z,185.33333333333334
2022-08-19T13:00:59.684Z,145.66666666666666
2022-08-19T13:03:58.755Z,109.66666666666667
2022-08-19T13:06:59.445Z,107.66666666666667
2022-08-19T13:09:59.036Z,115.66666666666667
2022-08-19T13:12:58.993Z,141.33333333333334
2022-08-19T13:15:58.593Z,157
2022-08-19T13:18:58.922Z,135.66666666666666
2022-08-19T13:22:00.386Z,120.33333333333333
2022-08-19T13:24:59.403Z,126.66666666666667
2022-08-19T13:27:58.756Z,142.66666666666666
2022-08-19T13:30:59.814Z,210
2022-08-19T13:33:58.309Z,137.66666666666666
2022-08-19T13:36:58.834Z,173.66666666666666
2022-08-19T13:39:59.237Z,179.33333333333334
2022-08-19T13:42:59.152Z,181.33333333333334
2022-08-19T13:45:59.586Z,155
2022-08-19T13:48:58.569Z,173.66666666666666
2022-08-19T13:51:59.232Z,151
2022-08-19T13:54:58.293Z,120
2022-08-19T13:57:58.947Z,100.33333333333333
2022-08-19T14:00:59.018Z,90.33333333333333
2022-08-19T14:03:59.137Z,84.33333333333333
2022-08-19T14:06:58.729Z,90
2022-08-19T14:09:58.814Z,93
2022-08-19T14:12:58.720Z,104.33333333333333
2022-08-19T14:15:59.773Z,107.66666666666667
2022-08-19T14:18:59.721Z,88.66666666666667
2022-08-19T14:21:58.856Z,82.33333333333333
2022-08-19T14:24:59.554Z,86.66666666666667
2022-08-19T14:27:58.920Z,84.66666666666667
2022-08-19T14:30:59.141Z,88
2022-08-19T14:33:58.610Z,91.66666666666667
2022-08-19T14:36:59.215Z,91
2022-08-19T14:39:59.396Z,88
2022-08-19T14:42:59.709Z,80.66666666666667
2022-08-19T14:45:59.279Z,71
2022-08-19T14:49:00.089Z,75.66666666666667
2022-08-19T14:51:59.346Z,82
2022-08-19T14:54:59.041Z,84
2022-08-19T14:57:59.668Z,92
2022-08-19T15:00:59.307Z,99
2022-08-19T15:03:59.150Z,100.33333333333333
2022-08-19T15:06:58.930Z,108.33333333333333
2022-08-19T15:09:58.975Z,113.33333333333333
2022-08-19T15:12:59.066Z,110.33333333333333
2022-08-19T15:15:59.041Z,110
2022-08-19T15:18:58.843Z,120.66666666666667
2022-08-19T15:21:58.759Z,126
2022-08-19T15:24:59.328Z,127
2022-08-19T15:27:59.365Z,128
2022-08-19T15:30:59.236Z,125
2022-08-19T15:33:59.032Z,121.33333333333333
2022-08-19T15:36:58.711Z,116.33333333333333
2022-08-19T15:39:59.997Z,111.33333333333333
2022-08-19T15:42:58.950Z,105
2022-08-19T15:45:59.495Z,98
2022-08-19T15:49:00.225Z,93.33333333333333
2022-08-19T15:51:58.891Z,88.33333333333333
2022-08-19T15:54:59.378Z,84.33333333333333
2022-08-19T15:57:59.235Z,82.66666666666667
2022-08-19T16:00:59.592Z,81.33333333333333
2022-08-19T16:03:59.290Z,84.33333333333333
2022-08-19T16:06:59.470Z,87.66666666666667
2022-08-19T16:09:59.326Z,94
2022-08-19T16:12:59.394Z,100
2022-08-19T16:15:59.252Z,103
2022-08-19T16:18:59.231Z,105.33333333333333
2022-08-19T16:21:59.360Z,105.66666666666667
2022-08-19T16:25:00.827Z,107.33333333333333
2022-08-19T16:28:06.507Z,111.66666666666667
2022-08-19T16:30:59.507Z,115.33333333333333
2022-08-19T16:33:59.420Z,116.33333333333333
2022-08-19T16:36:58.845Z,116
2022-08-19T16:39:59.607Z,101.66666666666667
2022-08-19T16:42:58.610Z,87
2022-08-19T16:45:59.785Z,107
2022-08-19T16:48:58.586Z,109
2022-08-19T16:51:58.709Z,103.66666666666667
2022-08-19T16:54:59.402Z,81
2022-08-19T16:57:59.486Z,62.666666666666664
2022-08-19T17:01:03.881Z,65
2022-08-19T17:03:58.737Z,63.333333333333336
2022-08-19T17:06:58.308Z,61
2022-08-19T17:09:59.500Z,57.333333333333336
2022-08-19T17:12:59.491Z,57.333333333333336
2022-08-19T17:15:59.374Z,59.333333333333336
2022-08-19T17:18:58.756Z,59.333333333333336
2022-08-19T17:21:59.101Z,57.666666666666664
2022-08-19T17:24:59.191Z,55.666666666666664
2022-08-19T17:27:58.890Z,54.333333333333336
2022-08-19T17:30:58.860Z,50.333333333333336
2022-08-19T17:33:59.067Z,42.666666666666664
2022-08-19T17:36:59.171Z,34.333333333333336
2022-08-19T17:39:59.059Z,27.333333333333332
2022-08-19T17:42:58.761Z,31
2022-08-19T17:45:58.747Z,35.666666666666664
2022-08-19T17:48:58.915Z,37.333333333333336
2022-08-19T17:51:59.029Z,36.666666666666664
2022-08-19T17:54:59.011Z,36.333333333333336
2022-08-19T17:57:58.970Z,35.333333333333336
2022-08-19T18:01:25.905Z,33.333333333333336
2022-08-19T18:03:59.043Z,31.333333333333332
2022-08-19T18:06:58.531Z,27
2022-08-19T18:10:01.773Z,21
2022-08-19T18:12:58.979Z,15.666666666666666
2022-08-19T18:15:59.002Z,10.666666666666666
2022-08-19T18:18:58.465Z,7
2022-08-19T18:21:58.927Z,4
2022-08-19T18:24:58.840Z,2.3333333333333335
2022-08-19T18:27:59.270Z,1.6666666666666667
2022-08-19T18:30:58.900Z,1.3333333333333333
2022-08-19T18:33:59.112Z,0.6666666666666666
2022-08-19T18:36:58.577Z,0.3333333333333333
2022-08-19T18:39:59.134Z,0.6666666666666666
2022-08-19T18:42:59.145Z,0
2022-08-19T18:45:58.657Z,0
2022-08-19T18:48:58.695Z,0
2022-08-19T18:51:58.522Z,0
2022-08-19T18:54:59.576Z,0
2022-08-19T18:57:58.760Z,0
2022-08-19T19:00:59.440Z,0
2022-08-19T19:03:59.097Z,0.3333333333333333
2022-08-19T19:06:58.940Z,0
2022-08-19T19:09:59.231Z,0.3333333333333333
2022-08-19T19:12:58.920Z,0
2022-08-19T19:15:59.083Z,0
2022-08-19T19:18:58.867Z,0
2022-08-19T19:21:59.036Z,0
2022-08-19T19:24:59.495Z,0
2022-08-19T19:27:58.816Z,0
2022-08-19T19:30:59.140Z,0
2022-08-19T19:33:58.512Z,0
2022-08-19T19:36:59.305Z,0
2022-08-19T19:39:59.442Z,0
2022-08-19T19:42:58.275Z,0
2022-08-19T19:45:59.161Z,0
2022-08-19T19:49:00.288Z,0
2022-08-19T19:51:58.602Z,0
2022-08-19T19:54:58.628Z,0
2022-08-19T19:57:59.026Z,0
2022-08-19T20:00:59.224Z,0
2022-08-19T20:03:59.010Z,0
2022-08-19T20:06:58.873Z,0
2022-08-19T20:10:00.193Z,0
2022-08-19T20:12:58.756Z,0
2022-08-19T20:15:59.770Z,0
2022-08-19T20:18:58.915Z,0
2022-08-19T20:21:59.375Z,0
2022-08-19T20:24:59.127Z,0
2022-08-19T20:27:59.136Z,0
2022-08-19T20:30:58.905Z,0
2022-08-19T20:33:59.390Z,0
2022-08-19T20:36:58.576Z,0
2022-08-19T20:39:59.838Z,0
2022-08-19T20:42:59.341Z,0
2022-08-19T20:45:58.423Z,0
2022-08-19T20:48:59.590Z,0
2022-08-19T20:51:58.704Z,0
2022-08-19T20:54:58.437Z,0.3333333333333333
2022-08-19T20:57:59.723Z,0
2022-08-19T21:00:59.372Z,0.3333333333333333
2022-08-19T21:03:58.638Z,0
2022-08-19T21:06:58.894Z,0
2022-08-19T21:09:59.133Z,0
2022-08-19T21:12:59.621Z,0
2022-08-19T21:15:58.700Z,0
2022-08-19T21:18:58.952Z,0
2022-08-19T21:21:59.428Z,0
2022-08-19T21:24:59.014Z,0
2022-08-19T21:27:59.216Z,0
2022-08-19T21:30:59.932Z,0
2022-08-19T21:33:59.342Z,0
2022-08-19T21:36:58.719Z,0
2022-08-19T21:39:59.579Z,0
2022-08-19T21:42:58.612Z,0
2022-08-19T21:45:58.615Z,0
2022-08-19T21:48:58.971Z,0
2022-08-19T21:51:59.455Z,0
2022-08-19T21:54:59.046Z,0
2022-08-19T21:57:58.759Z,0
2022-08-19T22:00:59.731Z,0
2022-08-19T22:03:59.252Z,0
2022-08-19T22:06:58.245Z,0
2022-08-19T22:09:59.156Z,0
2022-08-19T22:12:59.081Z,0
2022-08-19T22:15:58.947Z,0
2022-08-19T22:18:58.247Z,0
2022-08-19T22:21:58.657Z,0
2022-08-19T22:24:58.835Z,0
2022-08-19T22:28:00.404Z,0
2022-08-19T22:30:58.862Z,0
2022-08-19T22:33:59.183Z,0.3333333333333333
2022-08-19T22:36:58.462Z,0
2022-08-19T22:39:59.006Z,0
2022-08-19T22:42:59.021Z,0
2022-08-19T22:45:59.562Z,0
2022-08-19T22:49:01.077Z,0
2022-08-19T22:51:59.239Z,0
2022-08-19T22:54:58.986Z,0
2022-08-19T22:57:59.375Z,0
2022-08-19T23:00:59.194Z,0
2022-08-19T23:03:58.475Z,0
2022-08-19T23:06:58.287Z,0
2022-08-19T23:09:58.437Z,0
2022-08-19T23:12:58.431Z,0
2022-08-19T23:15:59.185Z,0
2022-08-19T23:18:58.236Z,0
2022-08-19T23:21:59.155Z,0
2022-08-19T23:24:59.162Z,0
2022-08-19T23:27:58.211Z,0
2022-08-19T23:30:59.273Z,0
2022-08-19T23:33:58.203Z,0.3333333333333333
2022-08-19T23:36:59.046Z,0
2022-08-19T23:39:59.967Z,0
2022-08-19T23:42:58.971Z,0
2022-08-19T23:45:58.796Z,0
2022-08-19T23:48:58.799Z,0
2022-08-19T23:51:58.933Z,0
2022-08-19T23:54:58.585Z,0
2022-08-19T23:57:58.510Z,0
